createdAt,value
2022-08-08T00:01:00.273Z,1.75
2022-08-08T00:03:59.025Z,2.33
2022-08-08T00:06:37.948Z,1.83
2022-08-08T00:09:33.111Z,1.73
2022-08-08T00:12:09.422Z,2.22
2022-08-08T00:15:00.168Z,1.70
2022-08-08T00:17:58.787Z,2.15
2022-08-08T00:20:41.065Z,2.73
2022-08-08T00:23:19.899Z,2.78
2022-08-08T00:25:54.715Z,2.60
2022-08-08T00:28:36.887Z,2.70
2022-08-08T00:32:20.137Z,3.00
2022-08-08T00:34:41.077Z,2.30
2022-08-08T00:37:47.074Z,1.90
2022-08-08T00:41:11.326Z,2.70
2022-08-08T00:44:11.007Z,2.42
2022-08-08T00:47:23.212Z,2.53
2022-08-08T00:50:09.200Z,2.00
2022-08-08T00:52:53.968Z,1.95
2022-08-08T00:55:52.796Z,1.98
2022-08-08T00:58:54.613Z,2.65
2022-08-08T01:02:04.969Z,2.42
2022-08-08T01:05:28.911Z,2.50
2022-08-08T01:08:46.785Z,2.83
2022-08-08T01:11:39.760Z,2.22
2022-08-08T01:14:53.676Z,3.05
2022-08-08T01:17:59.161Z,2.40
2022-08-08T01:20:44.194Z,2.90
2022-08-08T01:23:55.213Z,3.28
2022-08-08T01:26:51.678Z,3.28
2022-08-08T01:29:59.191Z,3.25
2022-08-08T01:32:46.819Z,3.17
2022-08-08T01:35:31.979Z,2.43
2022-08-08T01:38:27.101Z,2.35
2022-08-08T01:40:58.962Z,2.10
2022-08-08T01:43:38.811Z,2.10
2022-08-08T01:46:42.811Z,2.70
2022-08-08T01:49:51.890Z,2.20
2022-08-08T01:53:57.128Z,1.77
2022-08-08T01:56:29.381Z,2.80
2022-08-08T01:58:38.884Z,2.38
2022-08-08T02:02:00.228Z,2.70
2022-08-08T02:04:38.242Z,2.47
2022-08-08T02:07:36.963Z,2.40
2022-08-08T02:10:36.845Z,2.33
2022-08-08T02:13:52.526Z,2.75
2022-08-08T02:16:28.574Z,2.40
2022-08-08T02:19:26.845Z,2.87
2022-08-08T02:22:28.406Z,2.42
2022-08-08T02:25:11.527Z,2.28
2022-08-08T02:28:01.058Z,2.80
2022-08-08T02:31:04.863Z,1.90
2022-08-08T02:34:14.807Z,2.57
2022-08-08T02:37:53.019Z,2.58
2022-08-08T02:40:16.779Z,2.45
2022-08-08T02:44:32.884Z,2.42
2022-08-08T02:45:51.415Z,2.55
2022-08-08T02:48:54.666Z,2.10
2022-08-08T02:51:56.365Z,1.80
2022-08-08T02:55:20.672Z,2.30
2022-08-08T02:58:10.805Z,2.28
2022-08-08T03:01:08.835Z,2.50
2022-08-08T03:05:02.765Z,2.57
2022-08-08T03:07:09.579Z,2.75
2022-08-08T03:10:31.504Z,2.50
2022-08-08T03:13:02.659Z,2.38
2022-08-08T03:16:07.554Z,2.50
2022-08-08T03:18:57.259Z,1.90
2022-08-08T03:21:26.997Z,1.60
2022-08-08T03:24:07.514Z,1.48
2022-08-08T03:26:42.631Z,1.80
2022-08-08T03:29:20.819Z,1.33
2022-08-08T03:32:21.919Z,1.30
2022-08-08T03:34:56.647Z,1.52
2022-08-08T03:37:59.313Z,1.63
2022-08-08T03:40:11.031Z,1.83
2022-08-08T03:42:58.571Z,1.45
2022-08-08T03:46:06.015Z,1.43
2022-08-08T03:49:09.434Z,1.58
2022-08-08T03:51:15.511Z,1.60
2022-08-08T03:53:47.821Z,1.60
2022-08-08T03:56:31.262Z,1.95
2022-08-08T03:58:59.299Z,1.43
2022-08-08T04:02:31.804Z,1.75
2022-08-08T04:04:23.053Z,1.52
2022-08-08T04:06:57.857Z,1.20
2022-08-08T04:09:28.391Z,1.60
2022-08-08T04:12:13.576Z,1.33
2022-08-08T04:14:44.928Z,1.33
2022-08-08T04:17:22.557Z,2.22
2022-08-08T04:19:59.646Z,1.65
2022-08-08T04:22:29.504Z,1.88
2022-08-08T04:24:56.358Z,1.50
2022-08-08T04:28:01.362Z,1.80
2022-08-08T04:30:18.435Z,1.95
2022-08-08T04:32:49.824Z,1.60
2022-08-08T04:35:17.522Z,1.60
2022-08-08T04:37:46.478Z,1.20
2022-08-08T04:40:15.957Z,1.70
2022-08-08T04:42:46.756Z,1.92
2022-08-08T04:45:23.726Z,1.42
2022-08-08T04:47:52.280Z,1.23
2022-08-08T04:50:25.537Z,1.30
2022-08-08T04:53:00.954Z,1.38
2022-08-08T04:55:47.857Z,1.85
2022-08-08T04:58:19.362Z,1.70
2022-08-08T05:00:48.301Z,1.50
2022-08-08T05:03:18.779Z,2.37
2022-08-08T05:06:13.345Z,1.52
2022-08-08T05:08:45.621Z,1.52
2022-08-08T05:11:18.753Z,2.08
2022-08-08T05:13:58.272Z,1.85
2022-08-08T05:16:50.925Z,1.90
2022-08-08T05:20:12.761Z,1.90
2022-08-08T05:22:01.366Z,2.13
2022-08-08T05:24:27.811Z,1.65
2022-08-08T05:26:57.491Z,3.63
2022-08-08T05:29:27.075Z,9.03
2022-08-08T05:32:03.111Z,4.00
2022-08-08T05:34:55.371Z,2.35
2022-08-08T05:37:39.092Z,16.00
2022-08-08T05:40:11.946Z,3.60
2022-08-08T05:42:43.950Z,3.90
2022-08-08T05:45:25.543Z,3.60
2022-08-08T05:48:01.596Z,3.85
2022-08-08T05:50:36.050Z,3.83
2022-08-08T05:53:22.894Z,4.25
2022-08-08T05:56:10.179Z,2.90
2022-08-08T05:58:54.177Z,3.33
2022-08-08T06:01:56.250Z,3.08
2022-08-08T06:04:22.875Z,3.88
2022-08-08T06:06:52.711Z,3.97
2022-08-08T06:09:59.176Z,2.03
2022-08-08T06:12:14.305Z,2.55
2022-08-08T06:14:47.926Z,2.33
2022-08-08T06:17:19.638Z,2.20
2022-08-08T06:19:47.774Z,2.25
2022-08-08T06:25:00.615Z,1.60
2022-08-08T06:27:48.161Z,1.67
2022-08-08T06:30:26.122Z,0.90
2022-08-08T06:33:01.297Z,0.60
2022-08-08T06:36:07.191Z,1.83
2022-08-08T06:38:21.602Z,0.93
2022-08-08T06:41:03.874Z,1.48
2022-08-08T06:43:35.739Z,1.02
2022-08-08T06:46:04.266Z,1.52
2022-08-08T06:48:36.301Z,1.97
2022-08-08T06:51:07.776Z,1.45
2022-08-08T06:53:39.669Z,1.85
2022-08-08T06:56:08.579Z,1.27
2022-08-08T06:58:35.456Z,1.50
2022-08-08T07:01:11.602Z,1.10
2022-08-08T07:04:36.819Z,1.27
2022-08-08T07:06:56.072Z,1.38
2022-08-08T07:09:45.105Z,1.27
2022-08-08T07:12:30.549Z,1.20
2022-08-08T07:15:05.480Z,1.20
2022-08-08T07:18:01.888Z,1.58
2022-08-08T07:20:34.879Z,0.80
2022-08-08T07:24:02.038Z,0.55
2022-08-08T07:26:29.025Z,0.98
2022-08-08T07:29:05.367Z,1.10
2022-08-08T07:31:35.388Z,0.60
2022-08-08T07:34:04.255Z,0.57
2022-08-08T07:36:42.066Z,0.65
2022-08-08T07:39:18.059Z,0.77
2022-08-08T07:42:03.584Z,0.43
2022-08-08T07:44:37.356Z,0.60
2022-08-08T07:47:06.754Z,0.68
2022-08-08T07:49:33.876Z,0.75
2022-08-08T07:52:01.971Z,0.77
2022-08-08T07:54:38.039Z,0.67
2022-08-08T07:57:36.162Z,0.90
2022-08-08T08:00:13.416Z,0.88
2022-08-08T08:02:43.205Z,0.82
2022-08-08T08:05:15.580Z,1.02
2022-08-08T08:07:43.003Z,1.17
2022-08-08T08:10:18.008Z,1.05
2022-08-08T08:13:25.710Z,1.05
2022-08-08T08:16:13.156Z,0.80
2022-08-08T08:18:55.479Z,0.85
2022-08-08T08:21:44.151Z,0.60
2022-08-08T08:24:12.764Z,0.82
2022-08-08T08:26:39.374Z,0.93
2022-08-08T08:29:13.871Z,1.33
2022-08-08T08:31:43.029Z,0.85
2022-08-08T08:34:09.553Z,0.83
2022-08-08T08:36:36.038Z,0.80
2022-08-08T08:39:07.559Z,0.90
2022-08-08T08:41:48.575Z,0.63
2022-08-08T08:44:16.497Z,0.60
2022-08-08T08:46:50.976Z,0.50
2022-08-08T08:49:25.636Z,0.73
2022-08-08T08:51:58.983Z,0.75
2022-08-08T08:54:27.866Z,0.77
2022-08-08T08:57:00.323Z,0.70
2022-08-08T08:59:58.944Z,0.50
2022-08-08T09:02:21.822Z,0.70
2022-08-08T09:04:50.296Z,1.00
2022-08-08T09:07:23.559Z,0.70
2022-08-08T09:09:55.124Z,0.60
2022-08-08T09:12:27.390Z,1.03
2022-08-08T09:14:56.953Z,0.60
2022-08-08T09:17:40.736Z,0.50
2022-08-08T09:21:58.977Z,0.20
2022-08-08T09:22:58.709Z,0.30
2022-08-08T09:25:36.265Z,0.40
2022-08-08T09:28:12.443Z,0.30
2022-08-08T09:31:12.896Z,0.40
2022-08-08T09:34:28.294Z,0.45
2022-08-08T09:36:32.516Z,0.60
2022-08-08T09:39:00.191Z,0.57
2022-08-08T09:42:14.061Z,0.40
2022-08-08T09:44:49.446Z,0.52
2022-08-08T09:48:03.844Z,0.30
2022-08-08T09:50:13.898Z,0.30
2022-08-08T09:52:57.490Z,0.30
2022-08-08T09:55:31.727Z,0.30
2022-08-08T09:58:40.560Z,0.50
2022-08-08T10:01:15.521Z,0.45
2022-08-08T10:04:02.433Z,0.30
2022-08-08T10:06:32.404Z,0.30
2022-08-08T10:09:03.997Z,0.30
2022-08-08T10:12:26.932Z,0.70
2022-08-08T10:14:34.850Z,0.40
2022-08-08T10:17:57.235Z,0.73
2022-08-08T10:20:04.273Z,0.50
2022-08-08T10:22:33.516Z,1.00
2022-08-08T10:25:05.773Z,0.68
2022-08-08T10:27:42.133Z,0.50
2022-08-08T10:30:16.456Z,1.17
2022-08-08T10:33:00.306Z,0.50
2022-08-08T10:36:09.282Z,0.80
2022-08-08T10:38:19.540Z,0.65
2022-08-08T10:40:51.787Z,0.30
2022-08-08T10:43:18.595Z,0.50
2022-08-08T10:45:57.139Z,0.30
2022-08-08T10:48:58.453Z,0.60
2022-08-08T10:51:31.488Z,0.60
2022-08-08T10:54:07.659Z,0.50
2022-08-08T10:56:35.545Z,0.95
2022-08-08T10:59:10.148Z,0.80
2022-08-08T11:01:39.386Z,0.40
2022-08-08T11:04:10.413Z,0.70
2022-08-08T11:06:41.781Z,0.43
2022-08-08T11:09:19.977Z,0.60
2022-08-08T11:12:04.517Z,0.30
2022-08-08T11:14:58.070Z,0.55
2022-08-08T11:17:29.303Z,0.50
2022-08-08T11:20:27.529Z,0.50
2022-08-08T11:22:59.622Z,0.52
2022-08-08T11:25:53.220Z,0.60
2022-08-08T11:28:23.796Z,0.70
2022-08-08T11:30:55.763Z,0.70
2022-08-08T11:33:51.886Z,0.90
2022-08-08T11:36:14.369Z,0.70
2022-08-08T11:38:55.511Z,0.50
2022-08-08T11:41:28.193Z,0.43
2022-08-08T11:44:00.527Z,1.10
2022-08-08T11:46:31.407Z,0.65
2022-08-08T11:49:00.052Z,0.85
2022-08-08T11:51:38.792Z,0.50
2022-08-08T11:54:26.630Z,0.30
2022-08-08T11:56:56.607Z,0.38
2022-08-08T11:59:58.421Z,0.20
2022-08-08T12:02:33.442Z,0.40
2022-08-08T12:05:13.157Z,0.20
2022-08-08T12:07:50.937Z,0.32
2022-08-08T12:10:23.583Z,0.40
2022-08-08T12:13:00.861Z,0.30
2022-08-08T12:15:39.917Z,0.30
2022-08-08T12:18:25.343Z,0.33
2022-08-08T12:20:54.892Z,0.20
2022-08-08T12:23:43.462Z,0.30
2022-08-08T12:26:28.496Z,0.57
2022-08-08T12:29:17.962Z,0.47
2022-08-08T12:31:53.919Z,0.33
2022-08-08T12:34:37.154Z,0.38
2022-08-08T12:37:05.537Z,0.40
2022-08-08T12:39:37.183Z,0.82
2022-08-08T12:42:22.096Z,0.60
2022-08-08T12:45:54.175Z,0.60
2022-08-08T12:48:10.584Z,0.52
2022-08-08T12:50:54.819Z,0.70
2022-08-08T12:53:37.806Z,0.43
2022-08-08T12:56:19.315Z,0.70
2022-08-08T12:58:52.220Z,0.30
2022-08-08T13:01:24.764Z,0.60
2022-08-08T13:04:18.880Z,0.40
2022-08-08T13:07:07.030Z,0.40
2022-08-08T13:09:43.095Z,0.50
2022-08-08T13:12:44.482Z,0.30
2022-08-08T13:15:16.419Z,0.30
2022-08-08T13:18:08.782Z,0.20
2022-08-08T13:20:30.374Z,0.40
2022-08-08T13:23:41.236Z,0.57
2022-08-08T13:25:49.980Z,0.23
2022-08-08T13:28:17.508Z,0.30
2022-08-08T13:30:44.240Z,0.30
2022-08-08T13:33:18.426Z,0.25
2022-08-08T13:35:50.602Z,0.35
2022-08-08T13:38:18.056Z,0.30
2022-08-08T13:40:45.172Z,0.32
2022-08-08T13:43:13.624Z,0.30
2022-08-08T13:45:43.146Z,0.30
2022-08-08T13:48:15.547Z,0.20
2022-08-08T13:50:50.942Z,0.20
2022-08-08T13:53:36.262Z,0.20
2022-08-08T13:56:07.053Z,0.20
2022-08-08T13:58:49.199Z,0.30
2022-08-08T14:01:33.138Z,0.20
2022-08-08T14:04:21.356Z,0.30
2022-08-08T14:06:48.161Z,0.20
2022-08-08T14:09:25.548Z,0.25
2022-08-08T14:12:00.493Z,0.20
2022-08-08T14:14:45.130Z,0.30
2022-08-08T14:17:22.497Z,0.20
2022-08-08T14:20:14.723Z,0.20
2022-08-08T14:22:55.105Z,0.20
2022-08-08T14:25:22.587Z,0.20
2022-08-08T14:28:00.008Z,0.20
2022-08-08T14:30:33.635Z,0.27
2022-08-08T14:33:00.294Z,0.20
2022-08-08T14:35:35.076Z,0.20
2022-08-08T14:38:09.536Z,0.30
2022-08-08T14:40:52.962Z,0.30
2022-08-08T14:44:01.867Z,0.40
2022-08-08T14:46:15.281Z,0.30
2022-08-08T14:48:57.144Z,0.20
2022-08-08T14:51:30.944Z,0.20
2022-08-08T14:54:13.668Z,0.30
2022-08-08T14:56:42.789Z,0.30
2022-08-08T14:59:31.708Z,0.30
2022-08-08T15:01:58.791Z,0.30
2022-08-08T15:04:26.237Z,0.20
2022-08-08T15:06:52.736Z,0.40
2022-08-08T15:09:19.388Z,0.30
2022-08-08T15:11:53.154Z,0.30
2022-08-08T15:14:20.778Z,0.30
2022-08-08T15:16:52.758Z,0.40
2022-08-08T15:19:19.655Z,0.38
2022-08-08T15:21:50.080Z,0.20
2022-08-08T15:24:16.978Z,0.20
2022-08-08T15:26:52.966Z,0.20
2022-08-08T15:29:24.508Z,0.20
2022-08-08T15:32:17.863Z,0.20
2022-08-08T15:34:42.193Z,0.20
2022-08-08T15:37:09.158Z,1.95
2022-08-08T15:39:38.505Z,0.20
2022-08-08T15:42:13.173Z,0.20
2022-08-08T15:44:44.939Z,0.30
2022-08-08T15:47:15.753Z,0.27
2022-08-08T15:49:47.590Z,0.63
2022-08-08T15:52:15.846Z,0.20
2022-08-08T15:54:46.241Z,0.20
2022-08-08T15:57:15.596Z,0.20
2022-08-08T16:00:25.359Z,0.20
2022-08-08T16:02:31.313Z,0.20
2022-08-08T16:04:59.849Z,0.20
2022-08-08T16:07:39.429Z,0.20
2022-08-08T16:13:11.081Z,0.20
2022-08-08T16:13:27.732Z,0.20
2022-08-08T16:15:57.734Z,0.20
2022-08-08T16:18:26.099Z,0.20
2022-08-08T16:20:52.475Z,0.20
2022-08-08T16:23:18.930Z,0.20
2022-08-08T16:25:54.673Z,0.20
2022-08-08T16:28:34.125Z,0.20
2022-08-08T16:31:07.978Z,0.25
2022-08-08T16:33:38.855Z,0.20
2022-08-08T16:36:08.935Z,0.30
2022-08-08T16:38:44.712Z,0.30
2022-08-08T16:41:20.718Z,0.30
2022-08-08T16:43:50.862Z,0.30
2022-08-08T16:46:43.259Z,0.35
2022-08-08T16:49:07.978Z,0.20
2022-08-08T16:55:03.842Z,0.20
2022-08-08T16:55:24.256Z,0.30
2022-08-08T16:57:22.972Z,0.30
2022-08-08T17:00:01.124Z,0.20
2022-08-08T17:02:44.237Z,0.30
2022-08-08T17:05:12.927Z,0.20
2022-08-08T17:07:40.836Z,0.20
2022-08-08T17:10:10.087Z,0.20
2022-08-08T17:12:38.356Z,0.30
2022-08-08T17:15:20.460Z,0.30
2022-08-08T17:18:02.589Z,0.67
2022-08-08T17:20:31.151Z,0.28
2022-08-08T17:23:16.878Z,0.20
2022-08-08T17:25:53.613Z,0.20
2022-08-08T17:28:22.685Z,0.30
2022-08-08T17:31:01.623Z,0.50
2022-08-08T17:34:35.752Z,0.40
2022-08-08T17:36:28.666Z,0.60
2022-08-08T17:39:05.131Z,0.32
2022-08-08T17:41:48.480Z,0.30
2022-08-08T17:44:27.041Z,0.30
2022-08-08T17:46:55.350Z,0.30
2022-08-08T17:49:24.935Z,0.50
2022-08-08T17:51:55.062Z,0.20
2022-08-08T17:54:22.270Z,0.47
2022-08-08T17:56:53.839Z,0.30
2022-08-08T17:59:23.491Z,0.22
2022-08-08T18:02:00.120Z,0.30
2022-08-08T18:04:32.717Z,0.30
2022-08-08T18:07:00.937Z,0.63
2022-08-08T18:09:37.865Z,0.30
2022-08-08T18:12:04.989Z,0.20
2022-08-08T18:14:36.827Z,0.25
2022-08-08T18:17:04.245Z,0.30
2022-08-08T18:19:45.515Z,0.20
2022-08-08T18:22:33.008Z,0.30
2022-08-08T18:24:59.515Z,0.40
2022-08-08T18:27:26.324Z,0.20
2022-08-08T18:29:57.487Z,0.20
2022-08-08T18:32:23.862Z,0.20
2022-08-08T18:34:50.267Z,0.30
2022-08-08T18:37:34.470Z,0.20
2022-08-08T18:40:01.328Z,0.40
2022-08-08T18:42:27.736Z,0.20
2022-08-08T18:44:57.543Z,0.20
2022-08-08T18:47:33.550Z,0.20
2022-08-08T18:50:02.463Z,0.25
2022-08-08T18:52:30.654Z,0.20
2022-08-08T18:54:59.466Z,0.30
2022-08-08T18:57:40.688Z,0.30
2022-08-08T19:00:15.826Z,0.20
2022-08-08T19:02:55.459Z,0.40
2022-08-08T19:05:31.861Z,0.20
2022-08-08T19:08:08.514Z,0.20
2022-08-08T19:10:36.130Z,0.20
2022-08-08T19:13:03.459Z,0.43
2022-08-08T19:15:33.820Z,0.20
2022-08-08T19:18:31.877Z,0.43
2022-08-08T19:20:50.787Z,0.20
2022-08-08T19:23:18.759Z,0.30
2022-08-08T19:26:19.791Z,0.20
2022-08-08T19:28:36.473Z,0.20
2022-08-08T19:31:08.960Z,0.30
2022-08-08T19:33:52.224Z,0.30
2022-08-08T19:36:27.434Z,0.38
2022-08-08T19:38:54.205Z,0.30
2022-08-08T19:41:21.495Z,0.30
2022-08-08T19:44:03.095Z,0.28
2022-08-08T19:46:33.168Z,0.80
2022-08-08T19:48:59.861Z,0.50
2022-08-08T19:51:34.947Z,0.37
2022-08-08T19:54:09.916Z,0.70
2022-08-08T19:56:41.417Z,0.30
2022-08-08T19:59:09.600Z,0.82
2022-08-08T20:02:00.916Z,0.32
2022-08-08T20:04:23.584Z,0.40
2022-08-08T20:06:50.865Z,0.30
2022-08-08T20:09:22.856Z,0.40
2022-08-08T20:11:49.933Z,0.25
2022-08-08T20:14:34.259Z,0.55
2022-08-08T20:17:02.114Z,0.30
2022-08-08T20:19:34.283Z,0.40
2022-08-08T20:22:13.360Z,0.30
2022-08-08T20:24:55.397Z,0.40
2022-08-08T20:27:21.808Z,0.30
2022-08-08T20:30:00.016Z,0.33
2022-08-08T20:32:28.180Z,0.60
2022-08-08T20:35:01.452Z,0.40
2022-08-08T20:37:53.082Z,0.30
2022-08-08T20:40:16.596Z,0.80
2022-08-08T20:42:55.194Z,0.40
2022-08-08T20:45:58.169Z,0.30
2022-08-08T20:48:09.577Z,0.40
2022-08-08T20:50:36.169Z,0.60
2022-08-08T20:53:06.815Z,0.50
2022-08-08T20:55:43.063Z,0.67
2022-08-08T20:58:23.282Z,0.40
2022-08-08T21:00:50.032Z,0.40
2022-08-08T21:03:17.068Z,0.30
2022-08-08T21:05:58.565Z,0.50
2022-08-08T21:08:36.531Z,0.50
2022-08-08T21:11:12.475Z,0.30
2022-08-08T21:13:41.271Z,0.55
2022-08-08T21:16:20.900Z,0.30
2022-08-08T21:18:57.149Z,0.60
2022-08-08T21:21:39.345Z,0.30
2022-08-08T21:24:22.367Z,0.45
2022-08-08T21:26:54.177Z,0.70
2022-08-08T21:29:21.666Z,0.63
2022-08-08T21:32:07.866Z,0.80
2022-08-08T21:34:49.730Z,0.60
2022-08-08T21:37:19.214Z,0.47
2022-08-08T21:39:56.559Z,0.43
2022-08-08T21:42:23.708Z,0.47
2022-08-08T21:44:58.893Z,0.70
2022-08-08T21:48:05.599Z,0.60
2022-08-08T21:50:14.111Z,0.90
2022-08-08T21:54:32.857Z,0.52
2022-08-08T21:56:27.037Z,0.57
2022-08-08T21:58:13.874Z,1.02
2022-08-08T22:00:41.044Z,0.60
2022-08-08T22:03:07.841Z,0.63
2022-08-08T22:05:37.756Z,0.90
2022-08-08T22:08:08.031Z,0.82
2022-08-08T22:10:35.624Z,1.10
2022-08-08T22:13:18.623Z,0.80
2022-08-08T22:15:59.109Z,1.00
2022-08-08T22:18:31.109Z,0.93
2022-08-08T22:21:11.092Z,1.05
2022-08-08T22:23:49.412Z,1.15
2022-08-08T22:26:29.817Z,1.00
2022-08-08T22:29:05.086Z,0.95
2022-08-08T22:32:01.950Z,1.27
2022-08-08T22:34:39.546Z,1.40
2022-08-08T22:37:07.028Z,1.20
2022-08-08T22:40:01.471Z,1.10
2022-08-08T22:42:32.027Z,1.20
2022-08-08T22:45:01.758Z,0.90
2022-08-08T22:47:34.028Z,1.33
2022-08-08T22:50:03.490Z,0.63
2022-08-08T22:52:33.643Z,1.57
2022-08-08T22:55:05.329Z,1.17
2022-08-08T22:57:43.904Z,1.10
2022-08-08T23:00:13.333Z,1.17
2022-08-08T23:02:40.045Z,1.23
2022-08-08T23:05:14.410Z,1.03
2022-08-08T23:07:51.202Z,0.90
2022-08-08T23:10:25.322Z,1.30
2022-08-08T23:12:53.370Z,1.20
2022-08-08T23:16:37.577Z,1.10
2022-08-08T23:18:08.340Z,1.40
2022-08-08T23:20:43.537Z,1.02
2022-08-08T23:23:11.082Z,1.70
2022-08-08T23:25:48.306Z,0.88
2022-08-08T23:28:15.809Z,1.27
2022-08-08T23:30:44.215Z,1.30
2022-08-08T23:33:19.015Z,1.60
2022-08-08T23:36:07.384Z,1.10
2022-08-08T23:38:34.627Z,1.40
2022-08-08T23:41:01.982Z,1.48
2022-08-08T23:43:45.768Z,1.40
2022-08-08T23:49:04.472Z,1.20
2022-08-08T23:49:15.505Z,1.33
2022-08-08T23:52:04.318Z,0.95
2022-08-08T23:54:42.010Z,1.10
2022-08-08T23:57:27.597Z,0.80
